KBLU/BLU METAR and TAF weather

Enter ICAO airport designator
Station Type Date Time Source
KBLU METAR 2018/04/21 10:52 UTC NOAA

KBLU 211052Z AUTO 03004KT 10SM CLR 11/M02 A3024 RMK AO2 SLP184 T01111017


Station Type Date Time Source
KBLU Decoded METAR 2018/04/21 10:52 UTC NOAA

BLUE CANYON AIRPORT, CA, United States (KBLU) 39-17N 120-42W 1609M
Apr 21, 2018 - 06:52 AM EDT / 2018.04.21 1052 UTC
Wind: from the NNE (030 degrees) at 5 MPH (4 KT):0
Visibility: 10 mile(s):0
Sky conditions: clear
Temperature: 52.0 F (11.1 C)
Dew Point: 28.9 F (-1.7 C)
Relative Humidity: 40%
Pressure (altimeter): 30.24 in. Hg (1024 hPa)
ob: KBLU 211052Z AUTO 03004KT 10SM CLR 11/M02 A3024 RMK AO2 SLP184 T01111017
cycle: 11

Station Type Date Time Source
KBLU TAF UTC NOAA

Error!


Example: see airport list